Adairsville, Georgia
Current Conditions -  °F | °C
As of 2:53 PM on Saturday 25 Oct 2014 (Local Time) from KRMG Reporting Station
Clear Clear  
Wind Chill: 75°   Ceiling: Unl
Heat Index: 75°   Visibility: 10mi
Dew Point: 50°   Wind: 8mph
Humidity: 41%   Direction: 340°NNW
Pressure: 30.04"   Gusts: NA
Location:  34.37°N, 84.93°W
Report Text: KRMG 251853Z AUTO 34007KT 10SM CLR 24/10 A3004 RMK AO2 SLP165 T02390100
Loading
Personal Weather Stations






























Interactive Weather Map
Tropical Storm Tracking
New forecast layout! Learn more

10-Day Weather Forecast

Advertisements
Track Severe Weather on mobile